Time;durP1;ratioP1;P1;durP2;ratioP2;P2;SDS_P1;SDS_P2;PMS_P1;PMS_P2;Temp;Humidity;BMP_temperature;BMP_pressure;BME280_temperature;BME280_humidity;BME280_pressure;Samples;Min_cycle;Max_cycle;Signal;HPM_P1;HPM_P2
2022/08/16 00:00:13;;;;;;;6.35;4.32;;;;;;;-144.47;100.00;61586.06;5034681;28;20550;-89
2022/08/16 00:02:39;;;;;;;6.22;4.15;;;;;;;-144.47;100.00;61586.06;5035007;28;20037;-89
2022/08/16 00:05:06;;;;;;;9.35;4.28;;;;;;;-144.47;100.00;61586.06;5034460;28;20048;-90
2022/08/16 00:07:32;;;;;;;7.57;4.60;;;;;;;-144.47;100.00;61586.06;5034384;28;20033;-90
2022/08/16 00:09:58;;;;;;;5.05;4.57;;;;;;;-144.47;100.00;61586.06;5034950;28;20496;-90
2022/08/16 00:12:26;;;;;;;4.85;4.40;;;;;;;-144.47;100.00;61586.06;5030748;28;20030;-88
2022/08/16 00:14:53;;;;;;;7.35;4.25;;;;;;;-144.47;100.00;61586.06;5034684;28;20508;-89
2022/08/16 00:17:19;;;;;;;5.55;4.47;;;;;;;-144.47;100.00;61586.06;5035611;28;20041;-89
2022/08/16 00:19:45;;;;;;;7.65;4.70;;;;;;;-144.47;100.00;61586.06;5040256;28;20036;-89
2022/08/16 00:22:11;;;;;;;5.13;4.50;;;;;;;-144.47;100.00;61586.06;5034333;28;20033;-89
2022/08/16 00:24:36;;;;;;;5.10;4.30;;;;;;;-144.47;100.00;61586.06;5034527;28;20075;-89
2022/08/16 00:27:03;;;;;;;7.72;5.15;;;;;;;-144.47;100.00;61586.06;5034414;28;20038;-90
2022/08/16 00:29:29;;;;;;;5.75;4.90;;;;;;;-144.47;100.00;61586.06;5033625;28;20060;-90
2022/08/16 00:31:56;;;;;;;7.80;4.68;;;;;;;-144.47;100.00;61586.06;5036347;28;20056;-90
2022/08/16 00:34:23;;;;;;;5.75;4.70;;;;;;;-144.47;100.00;61586.06;5051960;28;20049;-90
2022/08/16 00:36:49;;;;;;;4.82;4.32;;;;;;;-144.47;100.00;61586.06;5047003;28;20113;-90
2022/08/16 00:39:16;;;;;;;5.53;4.45;;;;;;;-144.47;100.00;61586.06;5035523;28;20519;-88
2022/08/16 00:41:43;;;;;;;4.72;4.18;;;;;;;104.25;100.00;61586.06;5000664;28;20096;-90
2022/08/16 00:44:10;;;;;;;5.50;5.10;;;;;;;104.25;100.00;61586.06;5034719;28;20037;-88
2022/08/16 00:47:07;;;;;;;7.00;4.63;;;;;;;104.25;100.00;61586.06;5033238;28;20083;-90
2022/08/16 00:49:35;;;;;;;5.57;5.18;;;;;;;187.31;100.00;61586.06;5026087;28;20125;-89
2022/08/16 00:52:00;;;;;;;4.97;4.35;;;;;;;104.25;100.00;61586.06;5033988;28;20477;-90
2022/08/16 00:54:29;;;;;;;6.55;5.20;;;;;;;104.25;100.00;61586.06;5034479;28;20083;-89
2022/08/16 00:56:56;;;;;;;5.30;4.80;;;;;;;62.74;100.00;61586.06;5029688;28;20535;-89
2022/08/16 00:59:25;;;;;;;4.70;4.32;;;;;;;104.25;100.00;61586.06;5034401;28;20036;-89
2022/08/16 01:01:51;;;;;;;5.40;4.93;;;;;;;187.31;100.00;61586.06;5033951;28;20393;-89
2022/08/16 01:04:20;;;;;;;4.30;3.90;;;;;;;104.25;100.00;61586.06;5034006;28;20034;-89
2022/08/16 01:06:47;;;;;;;6.13;4.50;;;;;;;21.91;100.00;61586.06;5033281;28;20042;-89
2022/08/16 01:09:13;;;;;;;7.78;4.85;;;;;;;-144.47;100.00;61586.06;5034106;28;20033;-89
2022/08/16 01:11:39;;;;;;;4.93;4.07;;;;;;;104.25;100.00;61586.06;5033872;28;20044;-88
2022/08/16 01:14:14;;;;;;;8.73;4.35;;;;;;;104.25;100.00;61586.06;5015420;28;20040;-89
2022/08/16 01:16:41;;;;;;;6.68;4.50;;;;;;;104.25;100.00;61586.06;5033679;28;20060;-88
2022/08/16 01:19:23;;;;;;;5.30;4.68;;;;;;;104.25;100.00;61586.06;5033288;28;20038;-89
2022/08/16 01:22:10;;;;;;;4.85;4.32;;;;;;;62.74;100.00;61586.06;5033132;28;20485;-89
2022/08/16 01:24:41;;;;;;;8.50;4.50;;;;;;;104.25;100.00;61586.06;5031595;28;20457;-89
2022/08/16 01:27:17;;;;;;;7.80;4.97;;;;;;;187.31;100.00;61586.06;5033338;28;20044;-90
2022/08/16 01:29:51;;;;;;;5.82;4.90;;;;;;;-144.47;100.00;61586.06;5031700;28;20040;-88
2022/08/16 01:32:17;;;;;;;6.10;4.82;;;;;;;21.00;nan;98990.88;5011670;28;20068;-89
2022/08/16 01:34:43;;;;;;;6.75;5.05;;;;;;;20.92;nan;98990.31;5032989;28;20050;-89
2022/08/16 01:37:11;;;;;;;5.88;5.38;;;;;;;20.94;nan;98990.94;5032503;28;20040;-89
2022/08/16 01:39:37;;;;;;;7.03;4.70;;;;;;;21.01;nan;99007.78;5038014;28;20053;-89
2022/08/16 01:42:06;;;;;;;7.05;5.28;;;;;;;21.08;nan;99005.84;5047161;28;20508;-89
2022/08/16 01:44:32;;;;;;;5.57;4.80;;;;;;;21.16;nan;99009.06;5036963;28;20421;-89
2022/08/16 01:46:58;;;;;;;5.50;5.00;;;;;;;21.23;nan;99012.50;5013394;28;20444;-89
2022/08/16 01:49:32;;;;;;;11.80;6.00;;;;;;;21.24;nan;99016.00;5016231;28;20032;-89
2022/08/16 01:52:02;;;;;;;6.00;5.38;;;;;;;21.26;nan;99021.97;5031353;28;20079;-88
2022/08/16 01:54:40;;;;;;;6.03;4.32;;;;;;;21.15;nan;99022.69;5028231;28;20033;-89
2022/08/16 01:57:08;;;;;;;5.22;4.80;;;;;;;21.07;nan;99020.31;5032669;28;20044;-88
2022/08/16 01:59:37;;;;;;;6.45;5.85;;;;;;;20.94;nan;99023.13;5031653;28;20071;-88
2022/08/16 02:02:04;;;;;;;5.43;4.90;;;;;;;20.88;nan;99027.50;5018962;28;20133;-89
2022/08/16 02:04:32;;;;;;;5.38;4.55;;;;;;;20.91;nan;99036.97;5030899;28;20034;-89
2022/08/16 02:07:02;;;;;;;18.23;5.38;;;;;;;20.99;nan;99040.19;5030144;28;20335;-89
2022/08/16 02:09:28;;;;;;;7.20;5.20;;;;;;;21.06;nan;99045.47;5014113;28;20063;-88
2022/08/16 02:11:57;;;;;;;9.00;5.45;;;;;;;21.03;nan;99041.38;5030200;28;20029;-89
2022/08/16 02:14:27;;;;;;;6.53;5.15;;;;;;;21.08;nan;99032.69;5030659;28;20033;-89
2022/08/16 02:16:57;;;;;;;5.80;5.28;;;;;;;21.10;nan;99041.31;5026775;28;20493;-89
2022/08/16 02:19:26;;;;;;;5.53;5.03;;;;;;;21.07;nan;99042.59;5008480;28;20041;-89
2022/08/16 02:21:53;;;;;;;6.32;5.25;;;;;;;21.05;nan;99043.84;5030318;28;20052;-89
2022/08/16 02:24:21;;;;;;;7.78;5.30;;;;;;;21.07;nan;99057.84;5014595;28;20041;-89
2022/08/16 02:26:48;;;;;;;6.57;5.03;;;;;;;21.10;nan;99068.94;5014711;28;20044;-89
2022/08/16 02:29:17;;;;;;;7.35;4.80;;;;;;;21.12;nan;99060.69;5031820;28;20065;-89
2022/08/16 02:31:44;;;;;;;4.90;4.53;;;;;;;21.15;nan;99062.94;5032016;28;20076;-89
2022/08/16 02:34:11;;;;;;;6.57;4.85;;;;;;;21.17;nan;99058.19;5031720;28;20520;-90
2022/08/16 02:36:38;;;;;;;5.88;4.90;;;;;;;21.22;nan;99061.00;5023575;23;20077;-79
2022/08/16 02:39:05;;;;;;;5.07;4.57;;;;;;;21.23;nan;99068.03;5010758;28;20092;-78
2022/08/16 02:41:35;;;;;;;5.45;4.95;;;;;;;21.22;nan;99061.00;5011615;28;20135;-77
2022/08/16 02:44:03;;;;;;;9.30;5.40;;;;;;;21.23;nan;99068.03;5010824;28;20397;-78
2022/08/16 02:46:28;;;;;;;9.32;5.28;;;;;;;21.18;nan;99057.97;5011873;28;20042;-79
2022/08/16 02:48:54;;;;;;;6.60;5.70;;;;;;;21.17;nan;99063.56;5017011;28;20049;-79
2022/08/16 02:51:20;;;;;;;5.68;5.25;;;;;;;21.14;nan;99059.44;5011255;28;20022;-79
2022/08/16 02:53:47;;;;;;;7.30;6.55;;;;;;;21.14;nan;99063.97;5018390;28;20331;-78
2022/08/16 02:56:16;;;;;;;5.47;4.78;;;;;;;21.15;nan;99062.94;5009986;28;20110;-78
2022/08/16 02:58:45;;;;;;;6.63;5.53;;;;;;;21.16;nan;99056.53;5010296;28;20050;-78
2022/08/16 03:01:13;;;;;;;8.80;5.47;;;;;;;21.18;nan;99059.81;5008805;28;20037;-78
2022/08/16 03:03:39;;;;;;;7.53;4.78;;;;;;;21.17;nan;99058.19;5023007;28;20049;-78
2022/08/16 03:06:05;;;;;;;8.20;5.05;;;;;;;21.14;nan;99061.28;5009798;28;20038;-78
2022/08/16 03:08:32;;;;;;;9.73;5.22;;;;;;;21.13;nan;99056.97;5011874;28;20041;-78
2022/08/16 03:10:58;;;;;;;5.20;4.80;;;;;;;21.09;nan;99051.22;5026303;28;20395;-77
2022/08/16 03:13:23;;;;;;;5.28;4.78;;;;;;;21.04;nan;99047.56;5011386;28;20017;-78
2022/08/16 03:15:49;;;;;;;5.93;4.63;;;;;;;21.04;nan;99044.88;5016647;28;20041;-78
2022/08/16 03:18:16;;;;;;;4.93;4.35;;;;;;;21.04;nan;99031.47;5021520;28;20030;-78
2022/08/16 03:20:42;;;;;;;5.55;5.00;;;;;;;21.02;nan;99038.94;5018987;28;20397;-78
2022/08/16 03:23:10;;;;;;;5.68;4.93;;;;;;;21.01;nan;99039.97;5017841;28;20128;-78
2022/08/16 03:25:36;;;;;;;6.68;4.97;;;;;;;21.00;nan;99041.00;5011121;28;20486;-77
2022/08/16 03:28:04;;;;;;;7.75;5.53;;;;;;;20.97;nan;99036.09;5011002;28;20042;-78
2022/08/16 03:30:32;;;;;;;5.50;5.00;;;;;;;20.96;nan;99034.44;5010072;28;20026;-78
2022/08/16 03:33:01;;;;;;;10.10;5.40;;;;;;;20.94;nan;99039.22;5025567;28;20080;-78
2022/08/16 03:35:34;;;;;;;5.60;5.10;;;;;;;20.98;nan;99037.72;5011440;28;20033;-79
2022/08/16 03:38:10;;;;;;;6.20;5.30;;;;;;;21.00;nan;99036.47;5021163;28;20048;-78
2022/08/16 03:40:43;;;;;;;5.40;4.93;;;;;;;20.98;nan;99038.53;5009985;28;20470;-78
2022/08/16 03:43:11;;;;;;;7.55;4.95;;;;;;;20.97;nan;99036.88;5011892;28;20049;-78
2022/08/16 03:45:39;;;;;;;6.57;5.47;;;;;;;20.93;nan;99034.88;5010012;28;20034;-77
2022/08/16 03:48:07;;;;;;;6.22;5.55;;;;;;;20.79;nan;99037.69;5009394;28;20038;-77
2022/08/16 03:50:34;;;;;;;5.97;5.13;;;;;;;20.73;nan;99029.72;5017408;28;20536;-78
2022/08/16 03:53:00;;;;;;;6.93;5.13;;;;;;;20.73;nan;99032.41;5010831;28;20381;-80
2022/08/16 03:55:27;;;;;;;6.93;6.20;;;;;;;20.62;nan;99033.94;4997837;28;20512;-80
2022/08/16 03:57:54;;;;;;;7.72;5.78;;;;;;;20.51;nan;99037.31;5010425;28;20049;-78
2022/08/16 04:00:25;;;;;;;7.13;5.50;;;;;;;20.45;nan;99032.84;5009471;28;20067;-78
2022/08/16 04:02:57;;;;;;;6.28;5.53;;;;;;;20.44;nan;99037.38;5010681;28;20157;-78
2022/08/16 04:05:24;;;;;;;6.00;5.50;;;;;;;20.42;nan;99036.78;5009726;28;20037;-78
2022/08/16 04:07:50;;;;;;;7.55;5.20;;;;;;;20.38;nan;99037.47;5010529;28;20490;-78
2022/08/16 04:10:16;;;;;;;7.55;6.13;;;;;;;20.27;nan;99035.41;5010022;28;20131;-78
2022/08/16 04:12:44;;;;;;;6.53;6.03;;;;;;;20.18;nan;99042.09;5010591;28;20074;-78
2022/08/16 04:15:12;;;;;;;7.30;6.13;;;;;;;20.00;nan;99045.50;5009427;28;20029;-77
2022/08/16 04:17:43;;;;;;;7.10;6.47;;;;;;;19.93;nan;99040.19;5009205;28;20060;-78
2022/08/16 04:20:12;;;;;;;6.68;5.88;;;;;;;19.94;nan;99047.19;5018266;28;20046;-78
2022/08/16 04:22:41;;;;;;;7.70;6.90;;;;;;;19.94;nan;99047.19;5017521;28;20504;-78
2022/08/16 04:25:07;;;;;;;7.53;6.80;;;;;;;19.94;nan;99052.56;5009471;28;20389;-78
2022/08/16 04:27:35;;;;;;;12.80;6.32;;;;;;;19.95;nan;99050.69;5010569;28;20549;-78
2022/08/16 04:30:05;;;;;;;6.60;6.00;;;;;;;19.94;nan;99052.56;5021646;28;20477;-78
2022/08/16 04:32:37;;;;;;;9.77;6.65;;;;;;;19.89;nan;99044.34;5012265;28;20485;-78
2022/08/16 04:35:09;;;;;;;10.00;6.13;;;;;;;19.86;nan;99044.75;5020050;28;20497;-79
2022/08/16 04:37:36;;;;;;;7.28;6.68;;;;;;;19.82;nan;99054.25;4996339;28;20042;-78
2022/08/16 04:40:12;;;;;;;7.45;6.53;;;;;;;19.80;nan;99050.97;5014285;28;20441;-78
2022/08/16 04:42:41;;;;;;;7.10;6.35;;;;;;;19.77;nan;99051.41;5014224;28;20033;-78
2022/08/16 04:45:09;;;;;;;8.48;5.97;;;;;;;19.82;nan;99053.44;5004025;28;20887;-79
2022/08/16 04:47:36;;;;;;;15.50;6.45;;;;;;;19.83;nan;99058.59;5012806;28;20145;-79
2022/08/16 04:50:17;;;;;;;7.80;6.60;;;;;;;19.82;nan;99062.28;5008887;28;20490;-79
2022/08/16 04:52:58;;;;;;;10.93;6.68;;;;;;;19.82;nan;99064.97;5009562;28;20030;-79
2022/08/16 04:55:26;;;;;;;7.30;6.60;;;;;;;19.80;nan;99066.22;5012726;28;20116;-79
2022/08/16 04:57:54;;;;;;;6.95;6.22;;;;;;;19.82;nan;99073.00;5013366;28;20120;-78
2022/08/16 05:00:24;;;;;;;6.68;5.70;;;;;;;19.85;nan;99074.44;5012225;28;20437;-78
2022/08/16 05:02:53;;;;;;;8.13;6.53;;;;;;;19.87;nan;99073.19;5013277;28;20441;-80
2022/08/16 05:05:21;;;;;;;10.70;7.00;;;;;;;19.91;nan;99078.94;5013777;28;20371;-79
2022/08/16 05:07:48;;;;;;;9.82;6.70;;;;;;;19.91;nan;99071.72;5011934;28;20033;-79
2022/08/16 05:10:15;;;;;;;8.65;5.82;;;;;;;19.96;nan;99077.28;5021475;28;20390;-79
2022/08/16 05:12:41;;;;;;;8.27;6.43;;;;;;;20.06;nan;99082.16;5013423;28;20382;-79
2022/08/16 05:15:08;;;;;;;5.85;5.05;;;;;;;20.13;nan;99084.78;5013500;28;20044;-79
2022/08/16 05:17:36;;;;;;;8.25;6.72;;;;;;;20.21;nan;99084.50;5018890;28;20038;-79
2022/08/16 05:20:08;;;;;;;9.07;5.93;;;;;;;20.29;nan;99097.66;5012273;28;20405;-79
2022/08/16 05:22:39;;;;;;;7.78;6.20;;;;;;;20.36;nan;99101.97;5013149;28;20034;-79
2022/08/16 05:25:08;;;;;;;9.90;6.88;;;;;;;20.44;nan;99100.88;5011938;28;20048;-79
2022/08/16 05:27:35;;;;;;;6.70;6.00;;;;;;;20.49;nan;99095.72;5011854;28;20482;-79
2022/08/16 05:30:01;;;;;;;9.40;6.55;;;;;;;20.57;nan;99100.78;5012769;28;20069;-79
2022/08/16 05:32:28;;;;;;;7.15;6.30;;;;;;;20.61;nan;99102.00;4998407;28;20033;-79
2022/08/16 05:34:54;;;;;;;7.95;5.90;;;;;;;20.66;nan;99112.06;4990612;28;20088;-79
2022/08/16 05:37:23;;;;;;;9.27;5.65;;;;;;;20.70;nan;99108.72;5014177;28;20136;-79
2022/08/16 05:39:50;;;;;;;6.78;6.18;;;;;;;20.69;nan;99115.13;5026884;28;20038;-79
2022/08/16 05:42:16;;;;;;;6.82;6.22;;;;;;;20.67;nan;99119.91;5020769;28;20103;-79
2022/08/16 05:44:42;;;;;;;6.97;6.38;;;;;;;20.69;nan;99130.38;5020133;28;20037;-79
2022/08/16 05:47:10;;;;;;;6.35;5.40;;;;;;;20.73;nan;99131.63;5023688;28;20061;-79
2022/08/16 05:49:35;;;;;;;6.07;5.47;;;;;;;20.75;nan;99135.69;5019985;28;20037;-78
2022/08/16 05:52:01;;;;;;;7.10;5.35;;;;;;;20.77;nan;99139.00;4994539;28;20029;-78
2022/08/16 05:54:28;;;;;;;6.78;6.18;;;;;;;20.71;nan;99147.91;5016285;28;20030;-79
2022/08/16 05:56:57;;;;;;;8.43;6.35;;;;;;;20.61;nan;99155.63;5007232;28;20072;-78
2022/08/16 05:59:24;;;;;;;12.50;7.38;;;;;;;20.47;nan;99159.41;5027033;28;20029;-79
2022/08/16 06:01:50;;;;;;;7.47;6.88;;;;;;;20.40;nan;99158.63;5006935;28;20042;-79
2022/08/16 06:04:19;;;;;;;9.20;6.53;;;;;;;20.41;nan;99162.97;5025623;28;20448;-79
2022/08/16 06:06:48;;;;;;;;;;;;;;;20.47;nan;99163.97;5011350;28;20034;-79
2022/08/16 06:09:15;;;;;;;8.35;7.53;;;;;;;20.55;nan;99167.22;5011324;28;20293;-79
2022/08/16 06:11:42;;;;;;;11.65;8.05;;;;;;;20.60;nan;99162.03;5012390;28;20069;-79
2022/08/16 06:14:08;;;;;;;9.77;7.35;;;;;;;20.63;nan;99156.22;5011109;28;20083;-79
2022/08/16 06:16:37;;;;;;;8.60;7.87;;;;;;;20.67;nan;99168.16;5011291;28;20366;-78
2022/08/16 06:19:04;;;;;;;8.63;7.50;;;;;;;20.75;nan;99172.41;5019533;28;20054;-78
2022/08/16 06:21:31;;;;;;;7.55;6.32;;;;;;;20.87;nan;99180.59;5007537;28;20091;-79
2022/08/16 06:24:00;;;;;;;7.93;7.18;;;;;;;20.98;nan;99175.34;5018825;28;20043;-78
2022/08/16 06:26:25;;;;;;;9.88;8.10;;;;;;;21.04;nan;99177.13;5017418;28;20284;-79
2022/08/16 06:28:51;;;;;;;8.30;7.50;;;;;;;21.12;nan;99179.56;5011991;28;20482;-79
2022/08/16 06:31:23;;;;;;;10.65;7.85;;;;;;;21.21;nan;99178.25;5010972;28;20062;-79
2022/08/16 06:33:49;;;;;;;7.97;7.20;;;;;;;21.32;nan;99179.41;5012511;28;20135;-79
2022/08/16 06:36:17;;;;;;;8.30;6.75;;;;;;;21.40;nan;99176.44;5012197;28;20054;-79
2022/08/16 06:39:05;;;;;;;6.70;5.95;;;;;;;21.49;nan;99183.19;5009910;28;20056;-79
2022/08/16 06:41:49;;;;;;;6.00;5.43;;;;;;;21.59;nan;99179.97;5011376;28;20049;-79
2022/08/16 06:44:36;;;;;;;5.55;5.05;;;;;;;21.69;nan;99174.06;5010879;28;20071;-79
2022/08/16 06:47:04;;;;;;;6.13;4.80;;;;;;;21.78;nan;99178.13;5023663;28;20126;-78
2022/08/16 06:49:30;;;;;;;5.60;4.40;;;;;;;21.85;nan;99173.50;5011603;28;20041;-78
2022/08/16 06:51:56;;;;;;;6.45;4.70;;;;;;;21.91;nan;99183.34;5017000;28;20030;-79
2022/08/16 06:54:25;;;;;;;6.20;4.70;;;;;;;21.95;nan;99187.25;5025938;28;20124;-79
2022/08/16 06:56:52;;;;;;;6.10;5.50;;;;;;;21.97;nan;99187.84;5009811;28;20041;-79
2022/08/16 06:59:17;;;;;;;5.00;4.60;;;;;;;21.99;nan;99185.72;5011828;28;20037;-78
2022/08/16 07:01:48;;;;;;;;;;;;;;;22.00;nan;99187.38;5019950;28;20030;-78
2022/08/16 07:04:14;;;;;;;5.40;4.90;;;;;;;22.01;nan;99189.03;5026638;28;20293;-79
2022/08/16 07:06:41;;;;;;;5.40;4.90;;;;;;;22.04;nan;99183.19;5009605;28;20045;-78
2022/08/16 07:09:12;;;;;;;4.90;4.50;;;;;;;22.09;nan;99180.63;5011155;28;20088;-79
2022/08/16 07:11:43;;;;;;;6.70;4.30;;;;;;;22.12;nan;99182.88;5010213;28;20339;-79
2022/08/16 07:14:11;;;;;;;6.82;4.65;;;;;;;22.18;nan;99184.69;5018450;28;20069;-79
2022/08/16 07:16:42;;;;;;;5.13;4.68;;;;;;;22.21;nan;99176.16;5016299;28;20034;-78
2022/08/16 07:19:09;;;;;;;5.38;4.82;;;;;;;22.23;nan;99176.75;5011237;28;20041;-79
2022/08/16 07:21:37;;;;;;;7.25;5.10;;;;;;;22.26;nan;99184.38;5014978;28;20034;-79
2022/08/16 07:24:06;;;;;;;5.32;4.82;;;;;;;22.30;nan;99182.03;5009727;28;20033;-78
2022/08/16 07:26:34;;;;;;;6.32;4.63;;;;;;;22.35;nan;99180.31;5003579;28;20081;-79
2022/08/16 07:29:01;;;;;;;6.35;4.88;;;;;;;22.38;nan;99185.22;5018063;28;20073;-78
2022/08/16 07:31:27;;;;;;;6.07;5.03;;;;;;;22.42;nan;99178.34;4993989;28;20397;-79
2022/08/16 07:33:53;;;;;;;4.85;4.45;;;;;;;22.48;nan;99173.94;5019340;28;20036;-79
2022/08/16 07:36:21;;;;;;;5.72;4.82;;;;;;;22.55;nan;99179.22;5010990;28;20397;-78
2022/08/16 07:38:47;;;;;;;5.10;4.43;;;;;;;22.64;nan;99188.59;5010409;28;20446;-78
2022/08/16 07:41:13;;;;;;;6.65;5.20;;;;;;;22.68;nan;99185.19;5009947;28;20415;-78
2022/08/16 07:43:44;;;;;;;;;;;;;;;22.71;nan;99194.69;5011694;28;20409;-78
2022/08/16 07:46:13;;;;;;;6.57;6.03;;;;;;;22.73;nan;99192.63;5011423;28;19924;-79
2022/08/16 07:48:39;;;;;;;6.88;6.18;;;;;;;22.77;nan;99204.56;5009279;28;20425;-79
2022/08/16 07:51:05;;;;;;;7.20;5.90;;;;;;;22.82;nan;99204.69;5014614;28;20037;-79
2022/08/16 07:53:33;;;;;;;9.23;7.88;;;;;;;22.85;nan;99196.19;5010891;28;20060;-79
2022/08/16 07:56:01;;;;;;;9.77;7.55;;;;;;;22.88;nan;99200.25;5021051;28;20030;-79
2022/08/16 07:58:32;;;;;;;10.48;9.45;;;;;;;22.94;nan;99194.78;5010237;28;20425;-79
2022/08/16 08:01:00;;;;;;;8.32;7.50;;;;;;;22.98;nan;99201.31;5005991;28;20088;-78
2022/08/16 08:03:27;;;;;;;9.52;8.50;;;;;;;22.97;nan;99194.34;5004458;28;20379;-79
2022/08/16 08:05:55;;;;;;;8.00;7.13;;;;;;;22.94;nan;99200.16;5020778;28;20061;-78
2022/08/16 08:08:20;;;;;;;7.93;7.22;;;;;;;22.97;nan;99199.72;5012998;28;20057;-79
2022/08/16 08:10:46;;;;;;;8.85;7.97;;;;;;;23.01;nan;99200.88;5014077;28;20470;-79
2022/08/16 08:13:14;;;;;;;10.75;7.78;;;;;;;23.06;nan;99203.69;5014713;28;20034;-78
2022/08/16 08:15:40;;;;;;;12.32;8.27;;;;;;;23.09;nan;99202.41;5013719;28;20450;-79
2022/08/16 08:18:06;;;;;;;8.55;7.20;;;;;;;23.10;nan;99194.09;5014651;28;20151;-79
2022/08/16 08:20:34;;;;;;;7.88;7.07;;;;;;;23.17;nan;99197.50;5013459;28;20476;-79
2022/08/16 08:23:02;;;;;;;9.10;6.63;;;;;;;23.21;nan;99190.59;5014103;28;20363;-79
2022/08/16 08:25:48;;;;;;;7.63;6.90;;;;;;;23.30;nan;99195.63;5014058;28;20052;-79
2022/08/16 08:28:14;;;;;;;7.50;6.28;;;;;;;23.37;nan;99188.28;5021237;28;20034;-79
2022/08/16 08:30:42;;;;;;;9.50;7.20;;;;;;;23.43;nan;99198.09;5012932;28;20026;-78
2022/08/16 08:33:08;;;;;;;10.02;6.10;;;;;;;23.46;nan;99203.00;5014103;28;20045;-78
2022/08/16 08:35:39;;;;;;;6.82;6.20;;;;;;;23.51;nan;99203.97;5022415;28;20033;-78
2022/08/16 08:38:07;;;;;;;7.30;5.53;;;;;;;23.58;nan;99201.16;4996433;28;20033;-80
2022/08/16 08:40:36;;;;;;;5.97;5.40;;;;;;;23.64;nan;99205.63;5014240;28;20037;-79
2022/08/16 08:43:04;;;;;;;5.40;4.95;;;;;;;23.72;nan;99213.34;5013659;28;20029;-78
2022/08/16 08:45:30;;;;;;;5.35;4.85;;;;;;;23.81;nan;99211.09;5014181;28;20500;-79
2022/08/16 08:47:56;;;;;;;5.75;5.30;;;;;;;23.91;nan;99217.53;5012372;28;20034;-80
2022/08/16 08:50:23;;;;;;;5.80;5.30;;;;;;;24.01;nan;99214.22;5024694;28;20355;-79
2022/08/16 08:52:50;;;;;;;5.05;4.55;;;;;;;24.11;nan;99217.13;5011751;28;20062;-79
2022/08/16 08:55:17;;;;;;;6.97;5.75;;;;;;;24.23;nan;99217.13;5020532;28;20041;-79
2022/08/16 08:57:46;;;;;;;6.55;4.60;;;;;;;24.30;nan;99215.13;5013504;28;20382;-79
2022/08/16 09:00:31;;;;;;;6.60;4.80;;;;;;;24.40;nan;99215.31;5009742;28;20037;-79
2022/08/16 09:03:02;;;;;;;6.25;5.65;;;;;;;24.50;nan;99220.91;5018890;28;20302;-79
2022/08/16 09:05:28;;;;;;;6.90;6.30;;;;;;;24.54;nan;99216.66;5021312;28;20038;-78
2022/08/16 09:07:55;;;;;;;6.03;5.53;;;;;;;24.55;nan;99218.31;5013166;28;20049;-79
2022/08/16 09:10:27;;;;;;;6.63;5.95;;;;;;;24.55;nan;99222.88;5012548;28;20417;-79
2022/08/16 09:12:53;;;;;;;6.47;5.97;;;;;;;24.51;nan;99219.84;5012914;28;20430;-79
2022/08/16 09:15:22;;;;;;;8.38;5.60;;;;;;;24.53;nan;99220.41;5013645;28;20033;-78
2022/08/16 09:17:51;;;;;;;5.60;5.20;;;;;;;24.58;nan;99215.13;5014331;28;20041;-79
2022/08/16 09:20:17;;;;;;;6.70;5.00;;;;;;;24.65;nan;99213.09;5015080;28;20042;-79
2022/08/16 09:22:44;;;;;;;5.80;5.30;;;;;;;24.76;nan;99212.22;5013153;28;20112;-79
2022/08/16 09:25:10;;;;;;;5.22;4.82;;;;;;;24.88;nan;99212.16;5012182;28;20112;-79
2022/08/16 09:27:36;;;;;;;6.40;5.80;;;;;;;24.96;nan;99219.88;5011315;28;20137;-81
2022/08/16 09:30:03;;;;;;;7.10;5.30;;;;;;;25.05;nan;99212.19;5012840;28;20124;-79
2022/08/16 09:32:29;;;;;;;7.35;5.95;;;;;;;25.10;nan;99214.97;5013520;28;20386;-79
2022/08/16 09:34:55;;;;;;;14.35;5.90;;;;;;;25.09;nan;99218.75;5011776;28;20026;-79
2022/08/16 09:37:20;;;;;;;5.82;5.20;;;;;;;25.13;nan;99209.09;5012753;28;20042;-79
2022/08/16 09:39:46;;;;;;;6.07;5.50;;;;;;;25.19;nan;99214.34;5012971;28;20030;-79
2022/08/16 09:42:14;;;;;;;6.45;5.30;;;;;;;25.21;nan;99208.69;5012728;28;20062;-79
2022/08/16 09:44:40;;;;;;;6.43;5.82;;;;;;;25.22;nan;99196.81;5012810;28;20036;-79
2022/08/16 09:47:06;;;;;;;7.45;5.38;;;;;;;25.24;nan;99200.09;5013080;28;20069;-79
2022/08/16 09:49:31;;;;;;;9.10;6.00;;;;;;;25.28;nan;99195.81;5012866;28;20061;-78
2022/08/16 09:51:57;;;;;;;10.30;5.43;;;;;;;25.31;nan;99194.53;5012841;28;20076;-79
2022/08/16 09:54:25;;;;;;;8.00;5.50;;;;;;;25.31;nan;99192.66;5023759;28;20060;-79
2022/08/16 09:56:51;;;;;;;6.53;5.32;;;;;;;25.35;nan;99201.88;5012308;28;20045;-78
2022/08/16 09:59:17;;;;;;;6.60;5.97;;;;;;;25.40;nan;99203.84;5012620;28;20034;-79
2022/08/16 10:01:46;;;;;;;8.95;6.10;;;;;;;25.39;nan;99211.13;5012691;28;20026;-79
2022/08/16 10:04:13;;;;;;;9.82;6.85;;;;;;;25.37;nan;99205.16;5012513;28;20034;-79
2022/08/16 10:06:39;;;;;;;6.70;6.03;;;;;;;25.32;nan;99197.00;5012907;28;20022;-79
2022/08/16 10:09:07;;;;;;;6.55;5.95;;;;;;;25.30;nan;99209.91;5012272;28;20044;-79
2022/08/16 10:14:18;;;;;;;8.73;5.07;;;;;;;25.39;nan;99191.41;5012359;28;20030;-79
2022/08/16 10:16:44;;;;;;;5.60;5.10;;;;;;;25.52;nan;99201.84;5009955;28;20121;-79
2022/08/16 10:19:11;;;;;;;5.93;5.40;;;;;;;25.60;nan;99213.09;5012279;28;20060;-79
2022/08/16 10:21:38;;;;;;;7.75;5.57;;;;;;;25.65;nan;99207.78;5012752;28;20080;-79
2022/08/16 10:24:06;;;;;;;6.43;5.53;;;;;;;25.71;nan;99202.44;5012137;28;20424;-79
2022/08/16 10:26:33;;;;;;;7.90;6.32;;;;;;;25.78;nan;99203.06;5012419;28;20118;-78
2022/08/16 10:28:59;;;;;;;8.27;5.38;;;;;;;25.87;nan;99199.69;5011966;28;20029;-79
2022/08/16 10:31:26;;;;;;;6.03;5.22;;;;;;;25.90;nan;99198.38;5010650;28;20109;-80
2022/08/16 10:33:52;;;;;;;6.25;5.32;;;;;;;25.92;nan;99185.44;5011843;28;20097;-79
2022/08/16 10:36:19;;;;;;;5.97;5.40;;;;;;;25.97;nan;99189.03;5010927;28;20081;-80
2022/08/16 10:38:45;;;;;;;5.68;5.18;;;;;;;26.03;nan;99189.91;5011971;28;20030;-79
2022/08/16 10:41:11;;;;;;;8.00;5.30;;;;;;;26.06;nan;99186.69;5018689;28;20121;-79
2022/08/16 10:43:39;;;;;;;6.68;6.10;;;;;;;26.06;nan;99186.69;5012359;28;20498;-80
2022/08/16 10:46:07;;;;;;;6.45;5.18;;;;;;;26.03;nan;99187.19;5010295;28;20068;-79
2022/08/16 10:48:33;;;;;;;6.05;5.22;;;;;;;26.05;nan;99183.16;5011928;28;20616;-80
2022/08/16 10:50:59;;;;;;;7.53;5.40;;;;;;;26.10;nan;99182.38;5011753;28;20044;-77
2022/08/16 10:53:27;;;;;;;5.35;4.93;;;;;;;26.15;nan;99185.19;5009024;28;20551;-78
2022/08/16 10:55:52;;;;;;;7.53;5.78;;;;;;;26.19;nan;99185.47;5011454;28;20452;-79
2022/08/16 10:58:18;;;;;;;10.63;6.00;;;;;;;26.18;nan;99178.44;5012224;28;20034;-79
2022/08/16 11:00:45;;;;;;;6.47;5.80;;;;;;;26.17;nan;99177.59;5011571;28;20065;-79
2022/08/16 11:03:12;;;;;;;5.80;5.30;;;;;;;26.19;nan;99178.19;5011478;28;20516;-79
2022/08/16 11:05:39;;;;;;;5.88;5.25;;;;;;;26.20;nan;99176.28;5011563;28;20030;-79
2022/08/16 11:08:07;;;;;;;6.03;5.28;;;;;;;26.27;nan;99183.16;5011284;28;20456;-79
2022/08/16 11:10:39;;;;;;;5.35;4.85;;;;;;;26.36;nan;99176.25;5011695;28;20132;-80
2022/08/16 11:13:06;;;;;;;7.53;5.60;;;;;;;26.42;nan;99183.34;5011585;28;20037;-79
2022/08/16 11:15:33;;;;;;;8.43;5.53;;;;;;;26.45;nan;99182.81;5012103;28;20081;-79
2022/08/16 11:17:59;;;;;;;7.43;4.95;;;;;;;26.51;nan;99188.31;5011013;28;20417;-79
2022/08/16 11:20:27;;;;;;;6.18;5.35;;;;;;;26.53;nan;99186.16;5011817;28;20037;-79
2022/08/16 11:22:54;;;;;;;5.97;5.30;;;;;;;26.60;nan;99181.34;5011374;28;20037;-79
2022/08/16 11:25:23;;;;;;;5.68;4.63;;;;;;;26.69;nan;99186.03;5011949;28;20045;-79
2022/08/16 11:27:50;;;;;;;5.35;4.65;;;;;;;26.80;nan;99181.56;5011316;28;20358;-79
2022/08/16 11:30:17;;;;;;;5.80;4.65;;;;;;;26.93;nan;99183.84;5011956;28;20040;-79
2022/08/16 11:32:43;;;;;;;6.03;5.40;;;;;;;27.08;nan;99178.56;5011205;28;20432;-78
2022/08/16 11:35:16;;;;;;;6.15;4.80;;;;;;;27.22;nan;99174.31;5011658;28;20029;-79
2022/08/16 11:37:49;;;;;;;6.70;4.93;;;;;;;27.30;nan;99175.75;5011127;28;20408;-78
2022/08/16 11:40:15;;;;;;;5.35;4.38;;;;;;;27.34;nan;99176.03;5011282;28;20041;-79
2022/08/16 11:42:41;;;;;;;6.10;4.85;;;;;;;27.37;nan;99176.34;5015774;28;20450;-79
2022/08/16 11:45:08;;;;;;;9.23;4.72;;;;;;;27.44;nan;99176.13;5015552;28;20070;-79
2022/08/16 11:47:33;;;;;;;6.70;4.68;;;;;;;27.50;nan;99181.31;5015380;28;20132;-78
2022/08/16 11:49:59;;;;;;;4.57;4.25;;;;;;;27.59;nan;99178.94;5015094;28;20053;-79
2022/08/16 11:52:25;;;;;;;6.43;4.68;;;;;;;27.80;nan;99169.84;5015490;28;20045;-79